sensor_id;sensor_type;location;lat;lon;timestamp;pressure;altitude;pressure_sealevel;temperature;humidity
80749;BME280;70145;53.746;9.970;2023-05-29T00:01:18;102022.47;;;13.94;41.32
80749;BME280;70145;53.746;9.970;2023-05-29T00:03:44;102022.91;;;13.88;41.20
80749;BME280;70145;53.746;9.970;2023-05-29T00:06:09;102023.97;;;13.86;41.11
80749;BME280;70145;53.746;9.970;2023-05-29T00:08:35;102034.13;;;13.82;41.06
80749;BME280;70145;53.746;9.970;2023-05-29T00:11:00;102029.03;;;13.78;41.14
80749;BME280;70145;53.746;9.970;2023-05-29T00:13:26;102029.47;;;13.72;41.63
80749;BME280;70145;53.746;9.970;2023-05-29T00:15:52;102032.38;;;13.69;41.15
80749;BME280;70145;53.746;9.970;2023-05-29T00:18:17;102025.00;;;13.58;41.60
80749;BME280;70145;53.746;9.970;2023-05-29T00:20:42;102031.50;;;13.56;41.40
80749;BME280;70145;53.746;9.970;2023-05-29T00:23:08;102031.69;;;13.53;41.42
80749;BME280;70145;53.746;9.970;2023-05-29T00:25:35;102042.06;;;13.46;41.43
80749;BME280;70145;53.746;9.970;2023-05-29T00:28:00;102038.03;;;13.39;41.63
80749;BME280;70145;53.746;9.970;2023-05-29T00:30:25;102040.94;;;13.36;41.79
80749;BME280;70145;53.746;9.970;2023-05-29T00:32:51;102040.34;;;13.31;41.64
80749;BME280;70145;53.746;9.970;2023-05-29T00:35:17;102041.63;;;13.26;41.78
80749;BME280;70145;53.746;9.970;2023-05-29T00:37:42;102047.44;;;13.20;42.48
80749;BME280;70145;53.746;9.970;2023-05-29T00:40:08;102049.91;;;13.10;41.96
80749;BME280;70145;53.746;9.970;2023-05-29T00:42:34;102043.38;;;13.00;41.88
80749;BME280;70145;53.746;9.970;2023-05-29T00:44:59;102048.78;;;12.86;42.40
80749;BME280;70145;53.746;9.970;2023-05-29T00:47:25;102055.56;;;12.79;42.50
80749;BME280;70145;53.746;9.970;2023-05-29T00:49:51;102050.66;;;12.72;42.45
80749;BME280;70145;53.746;9.970;2023-05-29T00:52:17;102058.09;;;12.68;42.32
80749;BME280;70145;53.746;9.970;2023-05-29T00:54:44;102063.88;;;12.62;42.40
80749;BME280;70145;53.746;9.970;2023-05-29T00:57:12;102062.72;;;12.52;42.52
80749;BME280;70145;53.746;9.970;2023-05-29T00:59:37;102059.25;;;12.50;42.27
80749;BME280;70145;53.746;9.970;2023-05-29T01:02:04;102060.59;;;12.43;42.39
80749;BME280;70145;53.746;9.970;2023-05-29T01:04:31;102071.63;;;12.39;42.61
80749;BME280;70145;53.746;9.970;2023-05-29T01:07:00;102064.81;;;12.33;42.41
80749;BME280;70145;53.746;9.970;2023-05-29T01:09:25;102074.16;;;12.28;42.71
80749;BME280;70145;53.746;9.970;2023-05-29T01:20:31;102063.63;;;12.09;42.63
80749;BME280;70145;53.746;9.970;2023-05-29T01:35:05;102090.63;;;11.93;42.12
80749;BME280;70145;53.746;9.970;2023-05-29T01:37:30;102084.59;;;11.90;42.31
80749;BME280;70145;53.746;9.970;2023-05-29T01:39:56;102088.41;;;11.86;42.49
80749;BME280;70145;53.746;9.970;2023-05-29T01:42:21;102080.50;;;11.83;42.74
80749;BME280;70145;53.746;9.970;2023-05-29T01:44:47;102089.63;;;11.80;42.60
80749;BME280;70145;53.746;9.970;2023-05-29T01:47:14;102089.91;;;11.76;42.80
80749;BME280;70145;53.746;9.970;2023-05-29T01:49:41;102089.25;;;11.72;42.78
80749;BME280;70145;53.746;9.970;2023-05-29T01:52:07;102087.59;;;11.70;42.76
80749;BME280;70145;53.746;9.970;2023-05-29T01:54:32;102091.34;;;11.67;42.61
80749;BME280;70145;53.746;9.970;2023-05-29T01:56:59;102095.09;;;11.65;42.42
80749;BME280;70145;53.746;9.970;2023-05-29T01:59:25;102091.78;;;11.60;42.69
80749;BME280;70145;53.746;9.970;2023-05-29T02:01:51;102086.50;;;11.58;42.84
80749;BME280;70145;53.746;9.970;2023-05-29T02:04:16;102097.34;;;11.57;42.47
80749;BME280;70145;53.746;9.970;2023-05-29T02:06:42;102095.72;;;11.54;42.53
80749;BME280;70145;53.746;9.970;2023-05-29T02:09:07;102093.19;;;11.51;42.81
80749;BME280;70145;53.746;9.970;2023-05-29T02:11:32;102098.66;;;11.50;42.68
80749;BME280;70145;53.746;9.970;2023-05-29T02:13:58;102091.66;;;11.47;42.91
80749;BME280;70145;53.746;9.970;2023-05-29T02:16:23;102098.94;;;11.45;43.01
80749;BME280;70145;53.746;9.970;2023-05-29T02:18:48;102100.00;;;11.43;42.88
80749;BME280;70145;53.746;9.970;2023-05-29T02:21:13;102095.66;;;11.40;42.62
80749;BME280;70145;53.746;9.970;2023-05-29T02:23:39;102097.56;;;11.38;43.17
80749;BME280;70145;53.746;9.970;2023-05-29T02:26:04;102087.84;;;11.36;42.74
80749;BME280;70145;53.746;9.970;2023-05-29T02:28:30;102088.97;;;11.32;42.87
80749;BME280;70145;53.746;9.970;2023-05-29T02:30:55;102087.31;;;11.29;43.11
80749;BME280;70145;53.746;9.970;2023-05-29T02:33:20;102090.09;;;11.28;43.13
80749;BME280;70145;53.746;9.970;2023-05-29T02:35:46;102084.03;;;11.24;43.00
80749;BME280;70145;53.746;9.970;2023-05-29T02:38:11;102081.53;;;11.21;43.16
80749;BME280;70145;53.746;9.970;2023-05-29T02:40:36;102087.00;;;11.20;42.99
80749;BME280;70145;53.746;9.970;2023-05-29T02:43:02;102084.47;;;11.17;43.29
80749;BME280;70145;53.746;9.970;2023-05-29T02:45:30;102089.06;;;11.15;42.85
80749;BME280;70145;53.746;9.970;2023-05-29T02:47:55;102083.97;;;11.10;43.20
80749;BME280;70145;53.746;9.970;2023-05-29T02:50:20;102087.69;;;11.08;43.24
80749;BME280;70145;53.746;9.970;2023-05-29T02:52:45;102084.31;;;11.04;42.95
80749;BME280;70145;53.746;9.970;2023-05-29T02:55:11;102088.13;;;11.00;43.28
80749;BME280;70145;53.746;9.970;2023-05-29T02:57:36;102083.03;;;10.96;43.47
80749;BME280;70145;53.746;9.970;2023-05-29T03:00:02;102089.41;;;10.93;43.09
80749;BME280;70145;53.746;9.970;2023-05-29T03:02:31;102093.25;;;10.89;43.28
80749;BME280;70145;53.746;9.970;2023-05-29T03:04:56;102094.38;;;10.85;43.31
80749;BME280;70145;53.746;9.970;2023-05-29T03:07:22;102086.56;;;10.81;43.56
80749;BME280;70145;53.746;9.970;2023-05-29T03:09:47;102085.84;;;10.77;43.30
80749;BME280;70145;53.746;9.970;2023-05-29T03:12:12;102078.94;;;10.73;43.49
80749;BME280;70145;53.746;9.970;2023-05-29T03:14:38;102086.31;;;10.70;43.72
80749;BME280;70145;53.746;9.970;2023-05-29T03:17:06;102086.47;;;10.67;43.67
80749;BME280;70145;53.746;9.970;2023-05-29T03:19:32;102085.78;;;10.63;43.76
80749;BME280;70145;53.746;9.970;2023-05-29T03:21:58;102091.31;;;10.60;43.53
80749;BME280;70145;53.746;9.970;2023-05-29T03:24:23;102086.19;;;10.56;43.33
80749;BME280;70145;53.746;9.970;2023-05-29T03:26:52;102089.03;;;10.53;43.61
80749;BME280;70145;53.746;9.970;2023-05-29T03:29:18;102094.50;;;10.51;43.82
80749;BME280;70145;53.746;9.970;2023-05-29T03:31:43;102093.81;;;10.48;43.77
80749;BME280;70145;53.746;9.970;2023-05-29T03:34:08;102098.38;;;10.46;44.13
80749;BME280;70145;53.746;9.970;2023-05-29T03:36:33;102095.88;;;10.43;43.83
80749;BME280;70145;53.746;9.970;2023-05-29T03:39:01;102100.47;;;10.41;44.14
80749;BME280;70145;53.746;9.970;2023-05-29T03:41:26;102098.81;;;10.38;44.38
80749;BME280;70145;53.746;9.970;2023-05-29T03:43:52;102093.50;;;10.37;44.16
80749;BME280;70145;53.746;9.970;2023-05-29T03:46:17;102091.00;;;10.34;44.33
80749;BME280;70145;53.746;9.970;2023-05-29T03:48:42;102092.91;;;10.32;44.12
80749;BME280;70145;53.746;9.970;2023-05-29T03:51:08;102096.63;;;10.29;44.04
80749;BME280;70145;53.746;9.970;2023-05-29T03:53:33;102093.94;;;10.29;44.27
80749;BME280;70145;53.746;9.970;2023-05-29T03:55:58;102095.91;;;10.26;44.39
80749;BME280;70145;53.746;9.970;2023-05-29T03:58:23;102097.81;;;10.24;44.73
80749;BME280;70145;53.746;9.970;2023-05-29T04:00:49;102101.44;;;10.23;44.76
80749;BME280;70145;53.746;9.970;2023-05-29T04:03:14;102103.31;;;10.21;44.83
80749;BME280;70145;53.746;9.970;2023-05-29T04:05:40;102106.06;;;10.19;44.53
80749;BME280;70145;53.746;9.970;2023-05-29T04:08:05;102101.75;;;10.17;45.16
80749;BME280;70145;53.746;9.970;2023-05-29T04:10:30;102104.41;;;10.17;45.13
80749;BME280;70145;53.746;9.970;2023-05-29T04:12:59;102103.66;;;10.15;45.12
80749;BME280;70145;53.746;9.970;2023-05-29T04:15:25;102105.53;;;10.13;44.88
80749;BME280;70145;53.746;9.970;2023-05-29T04:17:50;102108.38;;;10.10;44.93
80749;BME280;70145;53.746;9.970;2023-05-29T04:20:15;102117.41;;;10.09;45.20
80749;BME280;70145;53.746;9.970;2023-05-29T04:22:41;102119.28;;;10.07;45.12
80749;BME280;70145;53.746;9.970;2023-05-29T04:25:06;102122.03;;;10.05;45.45
80749;BME280;70145;53.746;9.970;2023-05-29T04:27:32;102124.81;;;10.04;45.38
80749;BME280;70145;53.746;9.970;2023-05-29T04:30:05;102131.13;;;10.03;45.52
80749;BME280;70145;53.746;9.970;2023-05-29T04:32:31;102138.28;;;10.02;45.51
80749;BME280;70145;53.746;9.970;2023-05-29T04:34:58;102130.31;;;10.01;45.75
80749;BME280;70145;53.746;9.970;2023-05-29T04:37:27;102127.03;;;9.96;46.29
80749;BME280;70145;53.746;9.970;2023-05-29T04:39:54;102127.81;;;9.98;46.35
80749;BME280;70145;53.746;9.970;2023-05-29T04:42:20;102126.31;;;9.92;47.29
80749;BME280;70145;53.746;9.970;2023-05-29T04:44:45;102137.69;;;9.97;46.43
80749;BME280;70145;53.746;9.970;2023-05-29T04:47:11;102135.16;;;9.94;46.78
80749;BME280;70145;53.746;9.970;2023-05-29T04:49:39;102136.09;;;9.93;47.06
80749;BME280;70145;53.746;9.970;2023-05-29T04:52:05;102139.72;;;9.92;47.29
80749;BME280;70145;53.746;9.970;2023-05-29T04:54:30;102139.72;;;9.92;47.24
80749;BME280;70145;53.746;9.970;2023-05-29T04:56:56;102142.63;;;9.88;47.59
80749;BME280;70145;53.746;9.970;2023-05-29T04:59:21;102149.41;;;9.95;47.15
80749;BME280;70145;53.746;9.970;2023-05-29T05:01:46;102156.53;;;9.96;47.45
80749;BME280;70145;53.746;9.970;2023-05-29T05:04:12;102156.38;;;9.99;47.51
80749;BME280;70145;53.746;9.970;2023-05-29T05:06:37;102151.03;;;9.99;47.98
80749;BME280;70145;53.746;9.970;2023-05-29T05:09:04;102153.34;;;10.05;47.66
80749;BME280;70145;53.746;9.970;2023-05-29T05:11:29;102152.44;;;10.06;47.99
80749;BME280;70145;53.746;9.970;2023-05-29T05:13:54;102151.47;;;10.07;47.73
80749;BME280;70145;53.746;9.970;2023-05-29T05:16:20;102155.72;;;10.11;48.11
80749;BME280;70145;53.746;9.970;2023-05-29T05:18:45;102154.72;;;10.13;47.95
80749;BME280;70145;53.746;9.970;2023-05-29T05:21:10;102148.31;;;10.16;48.11
80749;BME280;70145;53.746;9.970;2023-05-29T05:23:36;102156.28;;;10.17;48.48
80749;BME280;70145;53.746;9.970;2023-05-29T05:26:02;102150.69;;;10.22;48.13
80749;BME280;70145;53.746;9.970;2023-05-29T05:28:27;102159.22;;;10.30;48.00
80749;BME280;70145;53.746;9.970;2023-05-29T05:30:52;102151.88;;;10.33;48.29
80749;BME280;70145;53.746;9.970;2023-05-29T05:33:18;102159.78;;;10.36;48.74
80749;BME280;70145;53.746;9.970;2023-05-29T05:35:43;102154.16;;;10.41;48.53
80749;BME280;70145;53.746;9.970;2023-05-29T05:38:09;102156.50;;;10.47;48.18
80749;BME280;70145;53.746;9.970;2023-05-29T05:40:34;102162.50;;;10.52;48.41
80749;BME280;70145;53.746;9.970;2023-05-29T05:42:59;102165.75;;;10.58;48.40
80749;BME280;70145;53.746;9.970;2023-05-29T05:45:25;102158.28;;;10.63;47.99
80749;BME280;70145;53.746;9.970;2023-05-29T05:47:50;102151.78;;;10.67;48.42
80749;BME280;70145;53.746;9.970;2023-05-29T05:50:15;102158.56;;;10.74;48.29
80749;BME280;70145;53.746;9.970;2023-05-29T05:52:41;102153.19;;;10.74;48.82
80749;BME280;70145;53.746;9.970;2023-05-29T05:55:06;102148.28;;;10.82;48.59
80749;BME280;70145;53.746;9.970;2023-05-29T05:57:32;102152.34;;;10.89;48.63
80749;BME280;70145;53.746;9.970;2023-05-29T05:59:59;102161.88;;;10.95;48.45
80749;BME280;70145;53.746;9.970;2023-05-29T06:02:25;102155.13;;;11.03;48.66
80749;BME280;70145;53.746;9.970;2023-05-29T06:04:50;102157.47;;;11.09;48.64
80749;BME280;70145;53.746;9.970;2023-05-29T06:07:16;102154.63;;;11.12;48.24
80749;BME280;70145;53.746;9.970;2023-05-29T06:09:41;102153.41;;;11.18;48.49
80749;BME280;70145;53.746;9.970;2023-05-29T06:12:07;102155.56;;;11.27;48.25
80749;BME280;70145;53.746;9.970;2023-05-29T06:14:39;102155.47;;;11.28;48.61
80749;BME280;70145;53.746;9.970;2023-05-29T06:17:05;102155.22;;;11.33;48.16
80749;BME280;70145;53.746;9.970;2023-05-29T06:19:30;102157.59;;;11.39;48.15
80749;BME280;70145;53.746;9.970;2023-05-29T06:21:56;102157.34;;;11.43;47.69
80749;BME280;70145;53.746;9.970;2023-05-29T06:24:21;102158.63;;;11.52;47.52
80749;BME280;70145;53.746;9.970;2023-05-29T06:26:47;102161.72;;;11.60;47.59
80749;BME280;70145;53.746;9.970;2023-05-29T06:29:12;102154.72;;;11.57;47.33
80749;BME280;70145;53.746;9.970;2023-05-29T06:31:37;102159.66;;;11.65;47.27
80749;BME280;70145;53.746;9.970;2023-05-29T06:34:03;102163.69;;;11.72;47.62
80749;BME280;70145;53.746;9.970;2023-05-29T06:36:28;102164.31;;;11.77;47.12
80749;BME280;70145;53.746;9.970;2023-05-29T06:38:53;102163.00;;;11.84;47.04
80749;BME280;70145;53.746;9.970;2023-05-29T06:41:18;102160.13;;;11.87;47.50
80749;BME280;70145;53.746;9.970;2023-05-29T06:43:44;102156.94;;;11.94;46.92
80749;BME280;70145;53.746;9.970;2023-05-29T06:46:10;102163.81;;;12.00;46.71
80749;BME280;70145;53.746;9.970;2023-05-29T06:48:36;102158.78;;;11.94;46.91
80749;BME280;70145;53.746;9.970;2023-05-29T06:51:02;102169.09;;;12.02;46.65
80749;BME280;70145;53.746;9.970;2023-05-29T06:53:37;102160.53;;;12.09;46.69
80749;BME280;70145;53.746;9.970;2023-05-29T06:56:03;102166.34;;;12.17;46.62
80749;BME280;70145;53.746;9.970;2023-05-29T06:58:29;102164.13;;;12.24;46.59
80749;BME280;70145;53.746;9.970;2023-05-29T07:04:13;102167.69;;;12.24;46.59
80749;BME280;70145;53.746;9.970;2023-05-29T07:06:39;102171.00;;;12.29;46.61
80749;BME280;70145;53.746;9.970;2023-05-29T07:09:04;102178.50;;;12.38;46.60
80749;BME280;70145;53.746;9.970;2023-05-29T07:11:29;102178.16;;;12.44;46.21
80749;BME280;70145;53.746;9.970;2023-05-29T07:13:55;102174.28;;;12.48;46.35
80749;BME280;70145;53.746;9.970;2023-05-29T07:16:20;102180.97;;;12.57;46.22
80749;BME280;70145;53.746;9.970;2023-05-29T07:18:45;102176.25;;;12.60;46.46
80749;BME280;70145;53.746;9.970;2023-05-29T07:21:10;102186.56;;;12.68;46.04
80749;BME280;70145;53.746;9.970;2023-05-29T07:23:36;102186.16;;;12.74;46.11
80749;BME280;70145;53.746;9.970;2023-05-29T07:26:01;102184.91;;;12.79;46.26
80749;BME280;70145;53.746;9.970;2023-05-29T07:28:27;102189.53;;;12.91;46.05
80749;BME280;70145;53.746;9.970;2023-05-29T07:30:52;102186.56;;;12.96;45.99
80749;BME280;70145;53.746;9.970;2023-05-29T07:33:19;102182.50;;;13.03;45.39
80749;BME280;70145;53.746;9.970;2023-05-29T07:35:44;102183.16;;;13.06;45.22
80749;BME280;70145;53.746;9.970;2023-05-29T07:38:09;102187.75;;;13.18;45.40
80749;BME280;70145;53.746;9.970;2023-05-29T07:40:35;102197.66;;;13.18;45.19
80749;BME280;70145;53.746;9.970;2023-05-29T07:43:00;102184.38;;;13.29;44.94
80749;BME280;70145;53.746;9.970;2023-05-29T07:45:26;102190.03;;;13.38;44.88
80749;BME280;70145;53.746;9.970;2023-05-29T07:47:52;102184.94;;;13.48;44.57
80749;BME280;70145;53.746;9.970;2023-05-29T07:50:17;102183.88;;;13.50;44.50
80749;BME280;70145;53.746;9.970;2023-05-29T07:52:43;102179.34;;;13.51;44.45
80749;BME280;70145;53.746;9.970;2023-05-29T07:55:09;102177.78;;;13.61;44.25
80749;BME280;70145;53.746;9.970;2023-05-29T07:57:34;102178.22;;;13.67;44.10
80749;BME280;70145;53.746;9.970;2023-05-29T08:00:07;102169.50;;;13.76;44.05
80749;BME280;70145;53.746;9.970;2023-05-29T08:02:33;102168.72;;;13.74;44.13
80749;BME280;70145;53.746;9.970;2023-05-29T08:04:58;102179.78;;;13.84;44.03
80749;BME280;70145;53.746;9.970;2023-05-29T08:07:23;102179.28;;;13.91;44.08
80749;BME280;70145;53.746;9.970;2023-05-29T08:09:49;102184.81;;;14.02;43.71
80749;BME280;70145;53.746;9.970;2023-05-29T08:12:14;102179.00;;;14.08;44.17
80749;BME280;70145;53.746;9.970;2023-05-29T08:14:39;102182.31;;;14.12;43.78
80749;BME280;70145;53.746;9.970;2023-05-29T08:17:05;102189.59;;;14.24;43.65
80749;BME280;70145;53.746;9.970;2023-05-29T08:19:31;102191.31;;;14.25;43.49
80749;BME280;70145;53.746;9.970;2023-05-29T08:21:56;102186.09;;;14.36;42.85
80749;BME280;70145;53.746;9.970;2023-05-29T08:24:25;102182.31;;;14.39;43.21
80749;BME280;70145;53.746;9.970;2023-05-29T08:26:50;102185.16;;;14.50;43.21
80749;BME280;70145;53.746;9.970;2023-05-29T08:29:16;102164.81;;;14.57;43.25
80749;BME280;70145;53.746;9.970;2023-05-29T08:31:44;102163.19;;;14.67;43.18
80749;BME280;70145;53.746;9.970;2023-05-29T08:34:09;102177.31;;;14.70;42.67
80749;BME280;70145;53.746;9.970;2023-05-29T08:36:35;102166.97;;;14.77;42.43
80749;BME280;70145;53.746;9.970;2023-05-29T08:39:00;102169.44;;;14.80;42.13
80749;BME280;70145;53.746;9.970;2023-05-29T08:41:36;102167.38;;;14.96;42.22
80749;BME280;70145;53.746;9.970;2023-05-29T08:44:03;102158.16;;;14.98;41.66
80749;BME280;70145;53.746;9.970;2023-05-29T08:46:38;102163.47;;;15.00;41.34
80749;BME280;70145;53.746;9.970;2023-05-29T08:49:07;102163.31;;;15.14;41.75
80749;BME280;70145;53.746;9.970;2023-05-29T08:51:37;102166.13;;;15.25;41.23
80749;BME280;70145;53.746;9.970;2023-05-29T08:54:06;102172.59;;;15.35;41.42
80749;BME280;70145;53.746;9.970;2023-05-29T08:56:31;102173.00;;;15.41;40.89
80749;BME280;70145;53.746;9.970;2023-05-29T08:58:57;102177.34;;;15.44;40.35
80749;BME280;70145;53.746;9.970;2023-05-29T09:01:25;102182.94;;;15.53;40.84
80749;BME280;70145;53.746;9.970;2023-05-29T09:03:50;102179.09;;;15.68;40.85
80749;BME280;70145;53.746;9.970;2023-05-29T09:06:15;102181.19;;;15.76;40.63
80749;BME280;70145;53.746;9.970;2023-05-29T09:08:42;102184.09;;;15.85;40.22
80749;BME280;70145;53.746;9.970;2023-05-29T09:11:11;102184.75;;;16.00;40.00
80749;BME280;70145;53.746;9.970;2023-05-29T09:13:36;102179.84;;;16.05;39.96
80749;BME280;70145;53.746;9.970;2023-05-29T09:16:02;102181.53;;;16.18;40.06
80749;BME280;70145;53.746;9.970;2023-05-29T09:18:31;102181.94;;;16.25;39.39
80749;BME280;70145;53.746;9.970;2023-05-29T09:20:57;102190.69;;;16.40;39.64
80749;BME280;70145;53.746;9.970;2023-05-29T09:23:23;102186.41;;;16.48;39.62
80749;BME280;70145;53.746;9.970;2023-05-29T09:25:53;102185.91;;;16.54;39.00
80749;BME280;70145;53.746;9.970;2023-05-29T09:28:20;102186.66;;;16.67;38.97
80749;BME280;70145;53.746;9.970;2023-05-29T09:30:47;102181.28;;;16.78;38.98
80749;BME280;70145;53.746;9.970;2023-05-29T09:33:14;102179.56;;;16.88;38.79
80749;BME280;70145;53.746;9.970;2023-05-29T09:35:44;102176.97;;;16.98;38.42
80749;BME280;70145;53.746;9.970;2023-05-29T09:38:17;102180.03;;;16.93;37.31
80749;BME280;70145;53.746;9.970;2023-05-29T09:40:43;102179.94;;;17.06;37.79
80749;BME280;70145;53.746;9.970;2023-05-29T09:43:16;102177.09;;;17.18;38.03
80749;BME280;70145;53.746;9.970;2023-05-29T09:45:48;102182.53;;;17.29;37.98
80749;BME280;70145;53.746;9.970;2023-05-29T09:48:27;102185.97;;;17.31;36.84
80749;BME280;70145;53.746;9.970;2023-05-29T09:50:52;102176.69;;;17.34;37.02
80749;BME280;70145;53.746;9.970;2023-05-29T09:53:23;102176.56;;;17.46;36.81
80749;BME280;70145;53.746;9.970;2023-05-29T09:55:53;102170.63;;;17.52;36.76
80749;BME280;70145;53.746;9.970;2023-05-29T09:58:22;102171.34;;;17.65;37.05
80749;BME280;70145;53.746;9.970;2023-05-29T10:00:49;102166.00;;;17.75;37.09
80749;BME280;70145;53.746;9.970;2023-05-29T10:03:15;102164.09;;;17.86;36.90
80749;BME280;70145;53.746;9.970;2023-05-29T10:05:42;102162.13;;;17.88;36.68
80749;BME280;70145;53.746;9.970;2023-05-29T10:08:11;102166.38;;;18.02;36.25
80749;BME280;70145;53.746;9.970;2023-05-29T10:10:40;102164.75;;;18.10;35.69
80749;BME280;70145;53.746;9.970;2023-05-29T10:13:12;102164.34;;;18.15;34.77
80749;BME280;70145;53.746;9.970;2023-05-29T10:15:41;102166.78;;;18.18;34.54
80749;BME280;70145;53.746;9.970;2023-05-29T10:18:13;102156.00;;;18.27;34.44
80749;BME280;70145;53.746;9.970;2023-05-29T10:20:40;102159.31;;;18.31;34.79
80749;BME280;70145;53.746;9.970;2023-05-29T10:23:09;102162.09;;;18.41;34.52
80749;BME280;70145;53.746;9.970;2023-05-29T10:25:35;102163.19;;;18.49;34.31
80749;BME280;70145;53.746;9.970;2023-05-29T10:28:01;102163.50;;;18.56;34.09
80749;BME280;70145;53.746;9.970;2023-05-29T10:30:41;102153.81;;;18.63;33.99
80749;BME280;70145;53.746;9.970;2023-05-29T10:38:33;102150.75;;;18.86;33.88
80749;BME280;70145;53.746;9.970;2023-05-29T10:43:49;102161.44;;;18.99;33.26
80749;BME280;70145;53.746;9.970;2023-05-29T10:46:14;102155.19;;;19.08;33.40
80749;BME280;70145;53.746;9.970;2023-05-29T10:48:41;102152.16;;;19.11;32.47
80749;BME280;70145;53.746;9.970;2023-05-29T10:51:07;102149.75;;;19.17;32.83
80749;BME280;70145;53.746;9.970;2023-05-29T10:53:33;102146.88;;;19.19;32.41
80749;BME280;70145;53.746;9.970;2023-05-29T10:56:00;102136.59;;;19.22;33.06
80749;BME280;70145;53.746;9.970;2023-05-29T10:58:29;102130.72;;;19.27;32.67
80749;BME280;70145;53.746;9.970;2023-05-29T11:00:55;102136.78;;;19.30;32.08
80749;BME280;70145;53.746;9.970;2023-05-29T11:03:25;102137.06;;;19.37;31.77
80749;BME280;70145;53.746;9.970;2023-05-29T11:06:16;102129.94;;;19.45;31.95
80749;BME280;70145;53.746;9.970;2023-05-29T11:11:15;102133.13;;;19.60;32.12
80749;BME280;70145;53.746;9.970;2023-05-29T11:13:54;102134.25;;;19.76;32.23
80749;BME280;70145;53.746;9.970;2023-05-29T11:18:54;102127.97;;;19.95;31.30
80749;BME280;70145;53.746;9.970;2023-05-29T11:21:44;102131.13;;;20.00;31.04
80749;BME280;70145;53.746;9.970;2023-05-29T11:24:23;102136.56;;;20.00;31.29
80749;BME280;70145;53.746;9.970;2023-05-29T11:26:51;102133.13;;;20.17;31.77
80749;BME280;70145;53.746;9.970;2023-05-29T11:29:24;102125.06;;;20.25;31.90
80749;BME280;70145;53.746;9.970;2023-05-29T11:31:55;102124.59;;;20.39;31.74
80749;BME280;70145;53.746;9.970;2023-05-29T11:34:23;102126.59;;;20.47;31.11
80749;BME280;70145;53.746;9.970;2023-05-29T11:36:51;102110.47;;;20.53;29.88
80749;BME280;70145;53.746;9.970;2023-05-29T11:39:16;102106.75;;;20.64;29.72
80749;BME280;70145;53.746;9.970;2023-05-29T11:41:42;102116.19;;;20.69;29.69
80749;BME280;70145;53.746;9.970;2023-05-29T11:44:07;102116.03;;;20.80;29.95
80749;BME280;70145;53.746;9.970;2023-05-29T11:46:33;102117.75;;;20.81;30.21
80749;BME280;70145;53.746;9.970;2023-05-29T11:49:00;102117.38;;;20.94;30.71
80749;BME280;70145;53.746;9.970;2023-05-29T11:51:26;102116.19;;;21.06;30.41
80749;BME280;70145;53.746;9.970;2023-05-29T11:53:51;102111.69;;;21.14;30.13
80749;BME280;70145;53.746;9.970;2023-05-29T11:56:26;102113.66;;;21.22;29.29
80749;BME280;70145;53.746;9.970;2023-05-29T11:58:52;102113.44;;;21.33;28.63
80749;BME280;70145;53.746;9.970;2023-05-29T12:01:23;102101.47;;;21.43;29.02
80749;BME280;70145;53.746;9.970;2023-05-29T12:03:50;102103.25;;;21.52;29.28
80749;BME280;70145;53.746;9.970;2023-05-29T12:06:16;102105.06;;;21.61;28.83
80749;BME280;70145;53.746;9.970;2023-05-29T12:08:42;102101.00;;;21.65;29.03
80749;BME280;70145;53.746;9.970;2023-05-29T12:11:08;102098.34;;;21.73;29.51
80749;BME280;70145;53.746;9.970;2023-05-29T12:13:34;102105.28;;;21.85;29.49
80749;BME280;70145;53.746;9.970;2023-05-29T12:16:03;102096.63;;;21.90;28.86
80749;BME280;70145;53.746;9.970;2023-05-29T12:18:29;102105.03;;;21.96;28.91
80749;BME280;70145;53.746;9.970;2023-05-29T12:21:01;102108.50;;;21.98;28.35
80749;BME280;70145;53.746;9.970;2023-05-29T12:23:28;102106.16;;;22.03;28.69
80749;BME280;70145;53.746;9.970;2023-05-29T12:25:55;102106.53;;;22.08;27.98
80749;BME280;70145;53.746;9.970;2023-05-29T12:28:21;102110.19;;;22.17;27.93
80749;BME280;70145;53.746;9.970;2023-05-29T12:30:47;102108.22;;;22.27;28.07
80749;BME280;70145;53.746;9.970;2023-05-29T12:33:32;102108.03;;;22.28;27.81
80749;BME280;70145;53.746;9.970;2023-05-29T12:36:11;102111.94;;;22.43;27.47
80749;BME280;70145;53.746;9.970;2023-05-29T12:38:50;102094.91;;;22.58;27.54
80749;BME280;70145;53.746;9.970;2023-05-29T12:41:23;102093.47;;;22.71;27.12
80749;BME280;70145;53.746;9.970;2023-05-29T12:43:49;102094.03;;;22.83;27.08
80749;BME280;70145;53.746;9.970;2023-05-29T12:46:14;102091.00;;;22.94;26.95
80749;BME280;70145;53.746;9.970;2023-05-29T12:48:40;102080.41;;;22.99;25.64
80749;BME280;70145;53.746;9.970;2023-05-29T12:51:05;102076.81;;;22.98;25.51
80749;BME280;70145;53.746;9.970;2023-05-29T12:53:33;102071.81;;;22.94;25.30
80749;BME280;70145;53.746;9.970;2023-05-29T12:55:58;102078.38;;;23.01;25.77
80749;BME280;70145;53.746;9.970;2023-05-29T12:58:24;102078.03;;;23.04;25.63
80749;BME280;70145;53.746;9.970;2023-05-29T13:00:52;102071.56;;;23.13;26.23
80749;BME280;70145;53.746;9.970;2023-05-29T13:03:21;102076.03;;;23.22;26.05
80749;BME280;70145;53.746;9.970;2023-05-29T13:05:48;102077.09;;;23.29;25.52
80749;BME280;70145;53.746;9.970;2023-05-29T13:08:14;102080.88;;;23.36;26.36
80749;BME280;70145;53.746;9.970;2023-05-29T13:10:39;102074.91;;;23.40;26.18
80749;BME280;70145;53.746;9.970;2023-05-29T13:13:05;102082.13;;;23.41;26.00
80749;BME280;70145;53.746;9.970;2023-05-29T13:15:30;102067.22;;;23.52;26.52
80749;BME280;70145;53.746;9.970;2023-05-29T13:17:57;102067.06;;;23.61;26.42
80749;BME280;70145;53.746;9.970;2023-05-29T13:20:23;102069.13;;;23.67;26.14
80749;BME280;70145;53.746;9.970;2023-05-29T13:22:48;102060.19;;;23.73;25.55
80749;BME280;70145;53.746;9.970;2023-05-29T13:25:17;102071.38;;;23.80;25.55